Главная страница
METAR-TAF:

METAR-TAF

Аэропорты :

Пуэнт-Нуар, Конго

широта: 04-49S, долгота: 011-54E, высота над уровнем моря: 17 м

Текущие метеонаблюдения

Эта сводка был подготовлена 50 минут назад, в 11:00 UTC
Ветер 6 Узел от южный
Температура 24°C
Влажность 78%
Давление 1016 hPa
Видимость 10 км и более
Отдельные облака на высоте 1000 фута
Рассеянная облачность на высоте 2600 фута

METAR: FCPP 171100Z 19006KT 9999 SCT010 BKN026 24/20 Q1016 NOSIG

Время: 12:50 (11:50 UTC)

Прогноз

Эта сводка был подготовлена 50 минут назад, в 11:00 UTC
Прогноз действительный с 17-го 12 UTC до 18-го 12 UTC
Ветер 6 Узел от южный
Видимость: 8000 м
Отдельные облака на высоте 1000 фута
Рассеянная облачность на высоте 2300 фута
Вероятность 40%
С 18-го 03 UTC до 18-го 07 UTC
Видимость: 3000 м
дымка

TAF: FCPP 171100Z 1712/1812 18006KT 8000 SCT010 BKN023 PROB40 1803/1807 3000 BR

Метеонаблюдения и прогнозы для более 4000 аэропортов (сводки METAR и TAF).

Имеющиеся станции представлены на карте желтыми и красными точками.

Чтобы увидеть название станции, наведите на нее мышь.

Затем щелкните, чтобы увидеть метеонаблюдения и метеопрогнозы.

Управление картой: чтобы увеличить масштаб, щелкните зеленые кнопки с черным крестиком; чтобы уменьшить масштаб, щелкните зеленую кнопку с тире; для просмотра соседних карт щелкайте зеленые стрелки.


METAR-TAF: